createdAt,value
2023-05-25T00:00:15.896Z,4.88
2023-05-25T00:01:18.293Z,4.32
2023-05-25T00:02:20.691Z,3.95
2023-05-25T00:03:23.033Z,4.25
2023-05-25T00:04:27.258Z,4.68
2023-05-25T00:05:29.792Z,4.78
2023-05-25T00:06:33.113Z,4.25
2023-05-25T00:07:35.343Z,5.18
2023-05-25T00:08:40.349Z,4.65
2023-05-25T00:09:46.561Z,5.18
2023-05-25T00:10:48.996Z,4.80
2023-05-25T00:11:52.360Z,4.72
2023-05-25T00:12:56.932Z,4.20
2023-05-25T00:13:59.148Z,3.97
2023-05-25T00:15:01.368Z,4.38
2023-05-25T00:16:03.796Z,4.10
2023-05-25T00:17:06.044Z,3.88
2023-05-25T00:18:08.353Z,4.57
2023-05-25T00:19:11.104Z,4.40
2023-05-25T00:20:14.777Z,4.57
2023-05-25T00:21:18.111Z,4.55
2023-05-25T00:22:20.461Z,4.47
2023-05-25T00:23:22.707Z,3.80
2023-05-25T00:24:25.043Z,3.50
2023-05-25T00:25:27.267Z,4.25
2023-05-25T00:26:29.457Z,4.55
2023-05-25T00:27:32.022Z,4.18
2023-05-25T00:28:34.289Z,3.95
2023-05-25T00:29:36.488Z,4.05
2023-05-25T00:30:39.214Z,4.07
2023-05-25T00:31:41.874Z,4.38
2023-05-25T00:32:44.132Z,3.83
2023-05-25T00:33:46.422Z,4.78
2023-05-25T00:34:48.728Z,4.18
2023-05-25T00:35:54.052Z,4.03
2023-05-25T00:36:56.802Z,3.60
2023-05-25T00:37:59.128Z,4.10
2023-05-25T00:39:01.310Z,4.38
2023-05-25T00:40:04.603Z,4.40
2023-05-25T00:41:06.854Z,4.07
2023-05-25T00:42:09.102Z,3.90
2023-05-25T00:43:12.989Z,5.15
2023-05-25T00:44:16.634Z,4.72
2023-05-25T00:45:20.705Z,4.43
2023-05-25T00:46:24.110Z,4.22
2023-05-25T00:47:27.302Z,4.38
2023-05-25T00:48:29.556Z,4.07
2023-05-25T00:49:35.374Z,4.05
2023-05-25T00:50:43.375Z,3.83
2023-05-25T00:51:46.718Z,4.32
2023-05-25T00:52:49.922Z,4.28
2023-05-25T00:53:52.285Z,4.03
2023-05-25T00:55:00.694Z,4.03
2023-05-25T00:56:23.107Z,3.92
2023-05-25T00:57:28.088Z,3.78
2023-05-25T00:58:33.331Z,3.90
2023-05-25T00:59:41.247Z,3.58
2023-05-25T01:00:46.114Z,4.28
2023-05-25T01:01:49.436Z,4.88
2023-05-25T01:02:56.437Z,4.50
2023-05-25T01:03:59.779Z,4.40
2023-05-25T01:05:06.341Z,4.20
2023-05-25T01:06:14.129Z,4.07
2023-05-25T01:07:19.998Z,4.00
2023-05-25T01:08:24.327Z,3.63
2023-05-25T01:09:29.015Z,3.85
2023-05-25T01:10:33.557Z,3.70
2023-05-25T01:11:37.087Z,4.40
2023-05-25T01:12:42.088Z,5.03
2023-05-25T01:13:45.024Z,4.65
2023-05-25T01:14:48.462Z,4.00
2023-05-25T01:15:51.315Z,4.20
2023-05-25T01:16:55.463Z,4.18
2023-05-25T01:17:59.401Z,3.88
2023-05-25T01:19:04.700Z,4.45
2023-05-25T01:20:11.322Z,4.47
2023-05-25T01:21:31.582Z,4.45
2023-05-25T01:22:42.561Z,4.70
2023-05-25T01:23:52.745Z,4.00
2023-05-25T01:25:02.059Z,4.53
2023-05-25T01:26:12.938Z,4.40
2023-05-25T01:27:36.107Z,4.00
2023-05-25T01:28:42.598Z,4.00
2023-05-25T01:29:46.630Z,4.40
2023-05-25T01:30:50.284Z,4.60
2023-05-25T01:31:54.303Z,4.38
2023-05-25T01:32:56.883Z,4.15
2023-05-25T01:33:59.481Z,5.00
2023-05-25T01:35:03.928Z,4.30
2023-05-25T01:36:06.337Z,4.20
2023-05-25T01:37:08.863Z,4.50
2023-05-25T01:38:12.139Z,4.03
2023-05-25T01:39:15.673Z,4.07
2023-05-25T01:40:18.033Z,4.10
2023-05-25T01:41:20.190Z,4.63
2023-05-25T01:42:22.546Z,4.10
2023-05-25T01:43:25.476Z,5.50
2023-05-25T01:44:28.750Z,4.32
2023-05-25T01:45:32.867Z,4.18
2023-05-25T01:46:40.118Z,4.35
2023-05-25T01:48:03.459Z,4.32
2023-05-25T01:49:31.740Z,4.28
2023-05-25T01:50:45.369Z,4.60
2023-05-25T01:51:56.801Z,4.63
2023-05-25T01:53:11.898Z,5.03
2023-05-25T01:54:20.069Z,4.15
2023-05-25T01:55:26.860Z,4.60
2023-05-25T01:56:30.831Z,4.20
2023-05-25T01:57:36.363Z,3.80
2023-05-25T01:58:46.977Z,4.03
2023-05-25T01:59:52.510Z,4.20
2023-05-25T02:02:09.741Z,4.13
2023-05-25T02:03:12.460Z,4.18
2023-05-25T02:04:17.350Z,4.63
2023-05-25T02:05:22.242Z,4.13
2023-05-25T02:06:24.419Z,5.10
2023-05-25T02:07:26.596Z,4.20
2023-05-25T02:08:28.862Z,4.72
2023-05-25T02:09:31.195Z,4.72
2023-05-25T02:10:33.393Z,4.53
2023-05-25T02:11:35.578Z,4.13
2023-05-25T02:12:37.789Z,4.45
2023-05-25T02:13:40.719Z,3.78
2023-05-25T02:14:43.442Z,4.75
2023-05-25T02:15:46.147Z,3.90
2023-05-25T02:16:48.612Z,3.70
2023-05-25T02:17:51.400Z,4.43
2023-05-25T02:18:53.910Z,4.55
2023-05-25T02:19:58.006Z,4.20
2023-05-25T02:21:00.398Z,4.07
2023-05-25T02:22:02.644Z,4.15
2023-05-25T02:23:04.904Z,4.70
2023-05-25T02:24:09.388Z,4.43
2023-05-25T02:25:11.671Z,4.45
2023-05-25T02:26:13.832Z,4.53
2023-05-25T02:27:16.209Z,4.78
2023-05-25T02:28:19.400Z,4.22
2023-05-25T02:29:21.725Z,4.03
2023-05-25T02:30:24.029Z,4.60
2023-05-25T02:31:32.739Z,3.60
2023-05-25T02:32:35.913Z,4.40
2023-05-25T02:33:38.173Z,4.03
2023-05-25T02:34:41.113Z,4.55
2023-05-25T02:35:43.576Z,4.22
2023-05-25T02:36:46.558Z,4.15
2023-05-25T02:37:50.924Z,3.97
2023-05-25T02:38:53.406Z,4.57
2023-05-25T02:39:55.729Z,4.60
2023-05-25T02:40:58.361Z,4.40
2023-05-25T02:42:01.363Z,4.88
2023-05-25T02:43:03.596Z,3.80
2023-05-25T02:44:06.430Z,4.20
2023-05-25T02:45:12.916Z,4.13
2023-05-25T02:46:16.628Z,4.70
2023-05-25T02:47:19.222Z,4.70
2023-05-25T02:48:22.055Z,4.50
2023-05-25T02:49:24.291Z,4.47
2023-05-25T02:50:26.488Z,4.13
2023-05-25T02:51:33.540Z,4.85
2023-05-25T02:52:35.932Z,4.07
2023-05-25T02:53:38.318Z,4.57
2023-05-25T02:54:41.592Z,4.40
2023-05-25T02:55:45.015Z,3.92
2023-05-25T02:56:52.753Z,4.10
2023-05-25T02:57:55.033Z,4.15
2023-05-25T02:59:19.593Z,4.72
2023-05-25T03:00:22.064Z,4.20
2023-05-25T03:01:25.393Z,4.43
2023-05-25T03:02:30.864Z,4.97
2023-05-25T03:03:33.096Z,4.65
2023-05-25T03:04:37.802Z,4.38
2023-05-25T03:05:40.487Z,4.32
2023-05-25T03:06:43.254Z,4.80
2023-05-25T03:07:49.741Z,4.68
2023-05-25T03:08:51.988Z,4.53
2023-05-25T03:09:54.351Z,4.72
2023-05-25T03:10:57.698Z,4.70
2023-05-25T03:12:00.038Z,4.38
2023-05-25T03:13:02.409Z,4.93
2023-05-25T03:14:04.682Z,5.13
2023-05-25T03:15:09.290Z,4.90
2023-05-25T03:16:12.549Z,4.18
2023-05-25T03:17:14.889Z,4.20
2023-05-25T03:18:18.523Z,5.10
2023-05-25T03:19:20.909Z,4.80
2023-05-25T03:20:24.611Z,5.25
2023-05-25T03:21:27.685Z,4.88
2023-05-25T03:22:29.966Z,4.90
2023-05-25T03:23:32.181Z,4.70
2023-05-25T03:24:34.679Z,4.93
2023-05-25T03:25:38.685Z,4.68
2023-05-25T03:26:40.950Z,3.88
2023-05-25T03:27:43.153Z,4.30
2023-05-25T03:28:45.365Z,4.57
2023-05-25T03:29:50.970Z,4.50
2023-05-25T03:30:53.280Z,4.47
2023-05-25T03:31:55.581Z,5.10
2023-05-25T03:33:01.138Z,4.45
2023-05-25T03:34:08.782Z,4.45
2023-05-25T03:35:12.843Z,4.82
2023-05-25T03:36:17.239Z,5.03
2023-05-25T03:37:19.510Z,4.20
2023-05-25T03:38:22.168Z,5.35
2023-05-25T03:39:24.372Z,4.80
2023-05-25T03:40:28.180Z,4.78
2023-05-25T03:41:30.799Z,4.55
2023-05-25T03:42:33.266Z,4.88
2023-05-25T03:43:36.441Z,5.30
2023-05-25T03:44:41.439Z,4.68
2023-05-25T03:45:44.533Z,4.32
2023-05-25T03:46:46.960Z,4.32
2023-05-25T03:47:50.006Z,4.75
2023-05-25T03:48:52.328Z,4.30
2023-05-25T03:49:54.593Z,4.63
2023-05-25T03:50:56.782Z,4.55
2023-05-25T03:52:01.586Z,4.22
2023-05-25T03:53:03.816Z,4.53
2023-05-25T03:54:06.090Z,5.45
2023-05-25T03:55:08.641Z,4.85
2023-05-25T03:56:10.909Z,4.72
2023-05-25T03:57:13.191Z,4.80
2023-05-25T03:58:16.015Z,5.05
2023-05-25T03:59:18.717Z,4.75
2023-05-25T04:00:22.590Z,4.72
2023-05-25T04:01:26.519Z,4.40
2023-05-25T04:02:28.831Z,4.25
2023-05-25T04:03:32.717Z,4.88
2023-05-25T04:04:35.729Z,4.68
2023-05-25T04:05:38.524Z,4.93
2023-05-25T04:06:42.616Z,4.80
2023-05-25T04:07:46.017Z,5.32
2023-05-25T04:08:48.211Z,4.93
2023-05-25T04:09:50.420Z,4.72
2023-05-25T04:10:52.974Z,4.55
2023-05-25T04:11:56.224Z,4.63
2023-05-25T04:12:59.773Z,4.32
2023-05-25T04:14:02.172Z,5.13
2023-05-25T04:15:09.226Z,5.10
2023-05-25T04:16:22.211Z,5.43
2023-05-25T04:17:25.339Z,4.28
2023-05-25T04:18:28.219Z,5.20
2023-05-25T04:19:30.427Z,5.55
2023-05-25T04:20:32.688Z,5.25
2023-05-25T04:21:36.153Z,4.93
2023-05-25T04:22:41.295Z,5.25
2023-05-25T04:23:43.535Z,5.25
2023-05-25T04:24:46.438Z,4.82
2023-05-25T04:25:51.115Z,4.95
2023-05-25T04:26:53.488Z,5.28
2023-05-25T04:27:56.691Z,5.32
2023-05-25T04:29:18.473Z,5.22
2023-05-25T04:30:31.480Z,5.47
2023-05-25T04:32:02.637Z,4.72
2023-05-25T04:33:05.027Z,4.85
2023-05-25T04:34:23.258Z,4.82
2023-05-25T04:35:36.671Z,5.32
2023-05-25T04:36:42.515Z,5.22
2023-05-25T04:37:47.098Z,4.53
2023-05-25T04:38:52.093Z,4.90
2023-05-25T04:39:54.527Z,5.35
2023-05-25T04:40:57.731Z,5.50
2023-05-25T04:42:04.300Z,4.93
2023-05-25T04:43:06.701Z,4.60
2023-05-25T04:44:10.351Z,4.45
2023-05-25T04:45:21.485Z,5.18
2023-05-25T04:46:24.097Z,4.90
2023-05-25T04:47:26.446Z,4.20
2023-05-25T04:48:32.463Z,4.65
2023-05-25T04:49:34.698Z,5.28
2023-05-25T04:50:40.028Z,4.70
2023-05-25T04:51:42.334Z,4.88
2023-05-25T04:52:44.871Z,5.13
2023-05-25T04:53:47.152Z,5.03
2023-05-25T04:54:49.491Z,5.60
2023-05-25T04:55:52.378Z,5.28
2023-05-25T04:56:54.628Z,4.63
2023-05-25T04:57:56.862Z,4.65
2023-05-25T04:58:59.254Z,5.25
2023-05-25T05:00:01.753Z,4.60
2023-05-25T05:01:05.005Z,5.25
2023-05-25T05:02:08.600Z,5.20
2023-05-25T05:03:11.217Z,4.70
2023-05-25T05:04:15.271Z,5.25
2023-05-25T05:05:18.346Z,5.65
2023-05-25T05:06:21.603Z,5.03
2023-05-25T05:07:23.919Z,4.88
2023-05-25T05:08:26.139Z,4.78
2023-05-25T05:09:28.689Z,4.95
2023-05-25T05:10:33.068Z,4.85
2023-05-25T05:11:36.391Z,4.78
2023-05-25T05:12:39.912Z,5.05
2023-05-25T05:13:42.194Z,4.75
2023-05-25T05:14:44.419Z,5.50
2023-05-25T05:15:46.890Z,4.65
2023-05-25T05:16:49.232Z,4.95
2023-05-25T05:17:51.557Z,4.60
2023-05-25T05:18:55.095Z,4.78
2023-05-25T05:19:57.535Z,4.80
2023-05-25T05:20:59.989Z,4.82
2023-05-25T05:22:04.906Z,4.93
2023-05-25T05:23:07.939Z,4.78
2023-05-25T05:24:10.243Z,4.80
2023-05-25T05:25:12.433Z,4.75
2023-05-25T05:26:15.261Z,5.22
2023-05-25T05:27:17.784Z,4.78
2023-05-25T05:28:28.409Z,5.40
2023-05-25T05:29:30.736Z,4.55
2023-05-25T05:30:33.325Z,4.72
2023-05-25T05:31:36.683Z,5.38
2023-05-25T05:32:39.059Z,5.43
2023-05-25T05:33:43.414Z,5.25
2023-05-25T05:34:45.783Z,4.55
2023-05-25T05:36:09.861Z,5.15
2023-05-25T05:37:12.755Z,5.35
2023-05-25T05:38:15.017Z,4.53
2023-05-25T05:39:17.959Z,4.32
2023-05-25T05:40:20.514Z,4.90
2023-05-25T05:41:23.394Z,5.18
2023-05-25T05:42:26.402Z,4.82
2023-05-25T05:43:28.811Z,4.90
2023-05-25T05:44:31.192Z,4.82
2023-05-25T05:45:33.423Z,5.13
2023-05-25T05:46:36.257Z,5.25
2023-05-25T05:47:38.725Z,4.90
2023-05-25T05:48:41.765Z,4.60
2023-05-25T05:49:44.005Z,4.75
2023-05-25T05:50:46.492Z,4.78
2023-05-25T05:51:49.158Z,4.43
2023-05-25T05:52:53.356Z,5.05
2023-05-25T05:53:55.710Z,4.75
2023-05-25T05:54:57.912Z,4.85
2023-05-25T05:56:00.298Z,4.53
2023-05-25T05:57:03.348Z,4.85
2023-05-25T05:58:05.513Z,5.40
2023-05-25T05:59:08.412Z,5.05
2023-05-25T06:00:11.443Z,5.10
2023-05-25T06:01:21.905Z,5.25
2023-05-25T06:02:24.490Z,4.68
2023-05-25T06:03:29.988Z,5.22
2023-05-25T06:04:32.633Z,4.47
2023-05-25T06:05:34.859Z,5.47
2023-05-25T06:06:37.692Z,5.03
2023-05-25T06:07:40.403Z,4.57
2023-05-25T06:08:43.333Z,5.20
2023-05-25T06:09:45.916Z,4.60
2023-05-25T06:10:49.156Z,5.50
2023-05-25T06:11:51.416Z,5.10
2023-05-25T06:12:54.055Z,5.20
2023-05-25T06:13:56.824Z,4.97
2023-05-25T06:15:00.069Z,4.32
2023-05-25T06:16:02.918Z,4.40
2023-05-25T06:17:06.060Z,4.65
2023-05-25T06:18:08.524Z,4.47
2023-05-25T06:19:11.466Z,4.80
2023-05-25T06:20:15.049Z,4.97
2023-05-25T06:21:18.266Z,5.15
2023-05-25T06:22:20.464Z,5.03
2023-05-25T06:23:22.686Z,5.40
2023-05-25T06:24:24.950Z,5.57
2023-05-25T06:25:27.172Z,4.88
2023-05-25T06:26:31.794Z,5.13
2023-05-25T06:27:34.020Z,4.53
2023-05-25T06:28:37.218Z,4.88
2023-05-25T06:29:39.895Z,5.18
2023-05-25T06:30:42.324Z,5.22
2023-05-25T06:31:44.769Z,5.13
2023-05-25T06:32:47.117Z,5.10
2023-05-25T06:33:49.381Z,5.03
2023-05-25T06:34:51.599Z,4.85
2023-05-25T06:36:00.264Z,5.20
2023-05-25T06:37:02.758Z,4.93
2023-05-25T06:38:05.037Z,5.22
2023-05-25T06:39:07.311Z,5.10
2023-05-25T06:40:10.382Z,4.70
2023-05-25T06:41:15.164Z,5.05
2023-05-25T06:42:18.477Z,5.03
2023-05-25T06:43:28.562Z,4.97
2023-05-25T06:44:51.692Z,4.45
2023-05-25T06:45:53.934Z,5.03
2023-05-25T06:46:56.281Z,4.85
2023-05-25T06:47:58.553Z,4.50
2023-05-25T06:49:02.053Z,4.78
2023-05-25T06:50:04.891Z,4.85
2023-05-25T06:51:07.187Z,4.32
2023-05-25T06:52:09.446Z,4.60
2023-05-25T06:53:12.358Z,4.43
2023-05-25T06:54:15.265Z,4.75
2023-05-25T06:55:17.501Z,5.45
2023-05-25T06:56:19.884Z,5.25
2023-05-25T06:57:22.670Z,4.80
2023-05-25T06:58:24.865Z,4.53
2023-05-25T06:59:27.129Z,4.63
2023-05-25T07:00:29.403Z,5.55
2023-05-25T07:01:31.732Z,4.43
2023-05-25T07:02:34.868Z,5.28
2023-05-25T07:03:38.608Z,5.03
2023-05-25T07:04:41.264Z,4.88
2023-05-25T07:05:43.759Z,4.65
2023-05-25T07:06:48.207Z,4.80
2023-05-25T07:07:50.629Z,4.88
2023-05-25T07:08:52.959Z,4.43
2023-05-25T07:09:55.166Z,4.63
2023-05-25T07:10:57.506Z,4.88
2023-05-25T07:11:59.713Z,5.18
2023-05-25T07:13:01.963Z,5.18
2023-05-25T07:14:04.236Z,4.78
2023-05-25T07:15:07.141Z,5.32
2023-05-25T07:16:09.392Z,4.93
2023-05-25T07:17:12.434Z,5.03
2023-05-25T07:18:15.215Z,5.55
2023-05-25T07:19:17.534Z,4.93
2023-05-25T07:20:22.060Z,4.60
2023-05-25T07:21:24.938Z,5.05
2023-05-25T07:22:27.268Z,5.07
2023-05-25T07:23:29.485Z,5.25
2023-05-25T07:24:31.737Z,5.18
2023-05-25T07:25:33.932Z,4.88
2023-05-25T07:26:37.156Z,5.07
2023-05-25T07:27:40.101Z,4.82
2023-05-25T07:28:42.287Z,4.43
2023-05-25T07:29:44.463Z,5.65
2023-05-25T07:30:46.700Z,4.50
2023-05-25T07:31:49.098Z,4.85
2023-05-25T07:32:51.470Z,5.18
2023-05-25T07:33:55.466Z,5.13
2023-05-25T07:34:57.750Z,5.60
2023-05-25T07:36:00.005Z,5.13
2023-05-25T07:37:02.393Z,5.32
2023-05-25T07:38:05.074Z,4.90
2023-05-25T07:39:08.505Z,5.32
2023-05-25T07:40:11.092Z,4.78
2023-05-25T07:41:13.701Z,5.72
2023-05-25T07:42:20.736Z,4.82
2023-05-25T07:43:23.000Z,5.47
2023-05-25T07:44:25.339Z,5.07
2023-05-25T07:45:27.591Z,5.43
2023-05-25T07:46:29.939Z,5.05
2023-05-25T07:47:32.231Z,5.13
2023-05-25T07:48:34.519Z,5.13
2023-05-25T07:49:36.689Z,5.45
2023-05-25T07:50:38.962Z,5.13
2023-05-25T07:51:41.883Z,5.32
2023-05-25T07:52:44.250Z,5.05
2023-05-25T07:53:46.514Z,5.95
2023-05-25T07:54:48.716Z,4.80
2023-05-25T07:55:50.980Z,5.22
2023-05-25T07:56:53.192Z,5.80
2023-05-25T07:57:55.599Z,5.40
2023-05-25T07:58:59.916Z,5.90
2023-05-25T08:00:02.234Z,5.07
2023-05-25T08:01:05.225Z,5.60
2023-05-25T08:02:07.575Z,5.22
2023-05-25T08:03:10.865Z,4.90
2023-05-25T08:04:13.465Z,6.10
2023-05-25T08:05:16.089Z,5.10
2023-05-25T08:06:18.696Z,5.15
2023-05-25T08:07:20.991Z,5.65
2023-05-25T08:08:24.736Z,5.00
2023-05-25T08:09:26.983Z,5.70
2023-05-25T08:10:32.193Z,5.60
2023-05-25T08:11:34.455Z,5.47
2023-05-25T08:12:47.895Z,5.85
2023-05-25T08:13:51.470Z,5.03
2023-05-25T08:14:55.543Z,6.07
2023-05-25T08:15:58.272Z,5.30
2023-05-25T08:17:00.603Z,4.88
2023-05-25T08:18:04.513Z,5.78
2023-05-25T08:19:06.950Z,5.40
2023-05-25T08:20:10.185Z,5.28
2023-05-25T08:21:13.480Z,5.28
2023-05-25T08:22:15.953Z,5.07
2023-05-25T08:23:18.143Z,5.18
2023-05-25T08:24:20.341Z,5.72
2023-05-25T08:25:22.614Z,5.35
2023-05-25T08:26:38.357Z,6.32
2023-05-25T08:27:47.593Z,6.30
2023-05-25T08:28:49.899Z,5.50
2023-05-25T08:29:52.559Z,5.95
2023-05-25T08:30:55.117Z,5.38
2023-05-25T08:31:57.924Z,5.53
2023-05-25T08:33:00.939Z,5.53
2023-05-25T08:34:03.336Z,5.18
2023-05-25T08:35:06.030Z,5.57
2023-05-25T08:36:09.448Z,5.50
2023-05-25T08:37:12.040Z,5.72
2023-05-25T08:38:14.702Z,6.10
2023-05-25T08:39:17.308Z,5.00
2023-05-25T08:40:22.786Z,5.38
2023-05-25T08:41:25.012Z,5.82
2023-05-25T08:42:27.282Z,5.35
2023-05-25T08:43:29.739Z,5.78
2023-05-25T08:44:32.246Z,6.28
2023-05-25T08:45:36.747Z,5.72
2023-05-25T08:46:40.960Z,5.40
2023-05-25T08:47:44.678Z,5.60
2023-05-25T08:48:50.582Z,5.85
2023-05-25T08:49:55.314Z,6.07
2023-05-25T08:51:01.789Z,5.65
2023-05-25T08:52:05.863Z,5.07
2023-05-25T08:53:11.633Z,5.57
2023-05-25T08:54:16.273Z,5.53
2023-05-25T08:55:23.654Z,4.82
2023-05-25T08:56:30.130Z,5.28
2023-05-25T08:57:45.907Z,5.60
2023-05-25T08:58:57.827Z,5.75
2023-05-25T09:00:10.784Z,5.28
2023-05-25T09:01:18.278Z,5.30
2023-05-25T09:02:49.886Z,5.05
2023-05-25T09:03:53.901Z,4.97
2023-05-25T09:04:56.379Z,5.25
2023-05-25T09:05:59.850Z,5.68
2023-05-25T09:07:10.212Z,5.65
2023-05-25T09:08:17.910Z,4.97
2023-05-25T09:09:20.870Z,4.97
2023-05-25T09:10:26.334Z,5.05
2023-05-25T09:11:38.888Z,5.22
2023-05-25T09:12:43.202Z,5.63
2023-05-25T09:13:46.214Z,5.50
2023-05-25T09:14:48.728Z,5.25
2023-05-25T09:15:52.929Z,5.05
2023-05-25T09:16:55.344Z,5.20
2023-05-25T09:17:58.332Z,5.47
2023-05-25T09:19:01.296Z,4.93
2023-05-25T09:20:04.749Z,5.20
2023-05-25T09:21:07.322Z,5.25
2023-05-25T09:22:16.772Z,5.00
2023-05-25T09:23:19.417Z,4.90
2023-05-25T09:24:22.315Z,5.53
2023-05-25T09:25:27.490Z,4.50
2023-05-25T09:26:29.937Z,5.32
2023-05-25T09:27:35.850Z,4.82
2023-05-25T09:28:46.827Z,4.72
2023-05-25T09:29:51.416Z,4.82
2023-05-25T09:30:54.349Z,5.63
2023-05-25T09:31:56.918Z,4.70
2023-05-25T09:33:17.397Z,5.30
2023-05-25T09:34:20.121Z,5.57
2023-05-25T09:35:23.704Z,4.70
2023-05-25T09:36:26.747Z,5.28
2023-05-25T09:37:29.820Z,6.13
2023-05-25T09:38:33.442Z,4.95
2023-05-25T09:39:36.295Z,5.30
2023-05-25T09:40:39.012Z,5.25
2023-05-25T09:41:41.834Z,5.22
2023-05-25T09:42:46.686Z,4.45
2023-05-25T09:44:59.000Z,5.35
2023-05-25T09:46:01.310Z,4.40
2023-05-25T09:47:04.692Z,4.97
2023-05-25T09:48:07.850Z,5.05
2023-05-25T09:49:10.710Z,4.28
2023-05-25T09:50:13.000Z,4.30
2023-05-25T09:51:15.577Z,5.03
2023-05-25T09:52:17.919Z,5.15
2023-05-25T09:53:20.609Z,4.45
2023-05-25T09:54:23.343Z,4.60
2023-05-25T09:55:36.806Z,4.85
2023-05-25T09:56:46.530Z,5.07
2023-05-25T09:57:53.400Z,8.05
2023-05-25T09:58:56.902Z,5.28
2023-05-25T09:59:59.800Z,4.65
2023-05-25T10:01:02.049Z,4.78
2023-05-25T10:02:04.682Z,5.28
2023-05-25T10:03:07.954Z,4.75
2023-05-25T10:04:10.566Z,5.15
2023-05-25T10:05:12.956Z,4.32
2023-05-25T10:06:16.201Z,4.78
2023-05-25T10:07:18.871Z,4.75
2023-05-25T10:08:27.894Z,4.70
2023-05-25T10:09:31.598Z,5.43
2023-05-25T10:10:34.116Z,4.82
2023-05-25T10:11:39.855Z,5.30
2023-05-25T10:12:45.957Z,4.88
2023-05-25T10:13:50.267Z,4.90
2023-05-25T10:14:54.991Z,4.22
2023-05-25T10:15:58.003Z,4.80
2023-05-25T10:17:05.334Z,5.00
2023-05-25T10:18:09.623Z,4.70
2023-05-25T10:19:22.998Z,4.80
2023-05-25T10:20:29.332Z,4.50
2023-05-25T10:21:34.929Z,4.93
2023-05-25T10:22:54.527Z,4.95
2023-05-25T10:24:10.031Z,4.82
2023-05-25T10:25:26.184Z,4.78
2023-05-25T10:26:33.403Z,5.28
2023-05-25T10:27:46.876Z,4.82
2023-05-25T10:28:53.895Z,5.03
2023-05-25T10:29:57.523Z,4.85
2023-05-25T10:31:00.240Z,5.38
2023-05-25T10:32:04.537Z,4.40
2023-05-25T10:33:07.545Z,4.90
2023-05-25T10:34:10.033Z,5.05
2023-05-25T10:35:13.852Z,4.70
2023-05-25T10:36:18.029Z,4.82
2023-05-25T10:37:20.735Z,4.80
2023-05-25T10:38:26.328Z,4.40
2023-05-25T10:39:29.628Z,4.47
2023-05-25T10:40:33.994Z,5.20
2023-05-25T10:41:36.245Z,4.60
2023-05-25T10:42:39.149Z,4.28
2023-05-25T10:43:42.438Z,4.55
2023-05-25T10:44:46.110Z,5.03
2023-05-25T10:45:48.931Z,4.88
2023-05-25T10:46:51.319Z,4.90
2023-05-25T10:47:53.578Z,4.57
2023-05-25T10:49:02.105Z,4.32
2023-05-25T10:50:04.718Z,4.93
2023-05-25T10:51:09.032Z,4.43
2023-05-25T10:52:19.689Z,4.40
2023-05-25T10:53:22.222Z,4.95
2023-05-25T10:54:33.736Z,4.70
2023-05-25T10:55:44.359Z,4.65
2023-05-25T10:57:31.740Z,5.07
2023-05-25T10:58:34.253Z,4.32
2023-05-25T10:59:40.681Z,4.60
2023-05-25T11:00:43.688Z,4.93
2023-05-25T11:01:51.851Z,4.40
2023-05-25T11:02:55.721Z,4.90
2023-05-25T11:04:17.386Z,4.32
2023-05-25T11:05:33.944Z,4.50
2023-05-25T11:06:40.319Z,4.70
2023-05-25T11:07:56.490Z,4.45
2023-05-25T11:09:00.217Z,4.40
2023-05-25T11:10:03.353Z,4.85
2023-05-25T11:11:05.660Z,4.80
2023-05-25T11:12:08.512Z,5.18
2023-05-25T11:13:23.858Z,4.03
2023-05-25T11:14:42.206Z,4.70
2023-05-25T11:15:44.559Z,4.43
2023-05-25T11:17:08.093Z,4.47
2023-05-25T11:18:14.781Z,4.40
2023-05-25T11:19:16.999Z,4.47
2023-05-25T11:20:26.025Z,4.55
2023-05-25T11:21:28.834Z,5.10
2023-05-25T11:22:40.085Z,4.75
2023-05-25T11:23:54.450Z,4.47
2023-05-25T11:24:58.932Z,4.82
2023-05-25T11:26:06.209Z,5.25
2023-05-25T11:27:08.971Z,4.45
2023-05-25T11:28:11.916Z,4.55
2023-05-25T11:29:16.046Z,4.60
2023-05-25T11:30:18.327Z,4.75
2023-05-25T11:31:27.102Z,4.68
2023-05-25T11:32:29.532Z,4.63
2023-05-25T11:33:32.045Z,4.70
2023-05-25T11:34:34.295Z,4.78
2023-05-25T11:35:39.028Z,4.80
2023-05-25T11:36:42.163Z,4.38
2023-05-25T11:37:50.699Z,4.45
2023-05-25T11:39:04.912Z,3.97
2023-05-25T11:40:09.510Z,4.50
2023-05-25T11:41:18.790Z,4.35
2023-05-25T11:42:22.807Z,4.53
2023-05-25T11:43:26.445Z,4.38
2023-05-25T11:44:36.314Z,4.88
2023-05-25T11:45:39.254Z,4.53
2023-05-25T11:46:43.930Z,4.68
2023-05-25T11:47:46.223Z,5.03
2023-05-25T11:48:52.730Z,4.72
2023-05-25T11:49:55.550Z,4.75
2023-05-25T11:51:07.184Z,4.93
2023-05-25T11:52:10.403Z,4.93
2023-05-25T11:53:12.895Z,4.72
2023-05-25T11:54:25.656Z,3.60
2023-05-25T11:55:27.969Z,4.22
2023-05-25T11:56:35.599Z,4.78
2023-05-25T11:57:40.179Z,4.68
2023-05-25T11:58:47.182Z,4.30
2023-05-25T11:59:54.145Z,4.07
2023-05-25T12:00:56.334Z,4.50
2023-05-25T12:02:03.434Z,3.83
2023-05-25T12:03:05.815Z,4.55
2023-05-25T12:04:09.928Z,4.18
2023-05-25T12:05:12.209Z,3.92
2023-05-25T12:06:33.435Z,4.70
2023-05-25T12:07:42.550Z,4.40
2023-05-25T12:08:44.782Z,4.13
2023-05-25T12:09:47.101Z,4.53
2023-05-25T12:10:51.173Z,4.68
2023-05-25T12:11:54.045Z,4.38
2023-05-25T12:12:58.376Z,4.30
2023-05-25T12:14:03.524Z,4.25
2023-05-25T12:15:06.678Z,4.20
2023-05-25T12:16:08.912Z,4.07
2023-05-25T12:17:11.291Z,4.07
2023-05-25T12:18:13.892Z,4.20
2023-05-25T12:19:16.965Z,4.40
2023-05-25T12:20:20.271Z,4.28
2023-05-25T12:21:23.168Z,4.05
2023-05-25T12:22:25.849Z,4.25
2023-05-25T12:23:28.119Z,4.68
2023-05-25T12:24:30.487Z,3.95
2023-05-25T12:25:46.036Z,4.15
2023-05-25T12:27:01.948Z,4.45
2023-05-25T12:28:12.065Z,4.32
2023-05-25T12:29:14.357Z,4.70
2023-05-25T12:30:16.835Z,4.50
2023-05-25T12:31:23.495Z,3.97
2023-05-25T12:32:26.074Z,3.85
2023-05-25T12:33:28.271Z,4.00
2023-05-25T12:34:30.895Z,5.97
2023-05-25T12:35:47.812Z,4.47
2023-05-25T12:36:54.478Z,4.50
2023-05-25T12:38:17.452Z,4.13
2023-05-25T12:39:31.586Z,4.25
2023-05-25T12:40:33.782Z,4.07
2023-05-25T12:41:44.550Z,4.40
2023-05-25T12:42:56.630Z,3.70
2023-05-25T12:43:59.483Z,4.03
2023-05-25T12:45:01.899Z,4.50
2023-05-25T12:46:04.313Z,4.15
2023-05-25T12:47:16.303Z,4.00
2023-05-25T12:48:26.172Z,4.78
2023-05-25T12:49:33.249Z,3.70
2023-05-25T12:50:35.458Z,3.92
2023-05-25T12:51:39.129Z,4.25
2023-05-25T12:52:43.983Z,3.63
2023-05-25T12:53:47.722Z,4.78
2023-05-25T12:54:49.956Z,4.07
2023-05-25T12:56:01.485Z,4.35
2023-05-25T12:57:07.844Z,4.47
2023-05-25T12:58:27.330Z,4.10
2023-05-25T12:59:31.257Z,3.70
2023-05-25T13:00:35.638Z,3.80
2023-05-25T13:01:37.838Z,4.32
2023-05-25T13:02:46.579Z,3.97
2023-05-25T13:03:50.078Z,3.72
2023-05-25T13:04:52.805Z,5.15
2023-05-25T13:06:00.342Z,4.50
2023-05-25T13:07:03.552Z,3.65
2023-05-25T13:08:06.695Z,3.50
2023-05-25T13:09:09.073Z,3.60
2023-05-25T13:10:13.136Z,3.70
2023-05-25T13:11:15.489Z,4.25
2023-05-25T13:12:17.925Z,3.88
2023-05-25T13:13:20.267Z,3.78
2023-05-25T13:14:26.224Z,3.72
2023-05-25T13:15:28.589Z,3.90
2023-05-25T13:16:33.341Z,4.20
2023-05-25T13:17:35.745Z,4.20
2023-05-25T13:18:38.202Z,3.85
2023-05-25T13:19:40.361Z,3.60
2023-05-25T13:20:42.809Z,4.13
2023-05-25T13:21:45.845Z,4.00
2023-05-25T13:22:50.559Z,3.55
2023-05-25T13:23:52.818Z,3.63
2023-05-25T13:24:55.098Z,4.20
2023-05-25T13:25:57.459Z,3.70
2023-05-25T13:26:59.661Z,4.28
2023-05-25T13:28:02.337Z,4.53
2023-05-25T13:29:04.513Z,3.75
2023-05-25T13:30:08.250Z,4.38
2023-05-25T13:31:10.539Z,3.90
2023-05-25T13:32:12.805Z,3.90
2023-05-25T13:33:15.445Z,4.70
2023-05-25T13:34:17.780Z,4.03
2023-05-25T13:35:37.090Z,3.72
2023-05-25T13:36:39.430Z,3.58
2023-05-25T13:37:41.784Z,4.20
2023-05-25T13:38:44.973Z,3.95
2023-05-25T13:39:47.188Z,4.13
2023-05-25T13:40:49.659Z,3.65
2023-05-25T13:41:51.814Z,4.20
2023-05-25T13:42:54.053Z,3.85
2023-05-25T13:43:56.325Z,4.18
2023-05-25T13:44:58.523Z,3.75
2023-05-25T13:46:00.918Z,4.32
2023-05-25T13:47:03.227Z,3.70
2023-05-25T13:48:05.589Z,3.83
2023-05-25T13:49:07.942Z,4.13
2023-05-25T13:50:10.522Z,3.88
2023-05-25T13:51:16.597Z,3.80
2023-05-25T13:52:18.835Z,4.03
2023-05-25T13:53:21.244Z,4.13
2023-05-25T13:54:23.769Z,3.75
2023-05-25T13:55:25.978Z,3.80
2023-05-25T13:56:28.215Z,4.22
2023-05-25T13:57:30.494Z,4.47
2023-05-25T13:58:32.678Z,4.15
2023-05-25T13:59:34.912Z,4.00
2023-05-25T14:00:37.169Z,3.97
2023-05-25T14:01:39.585Z,4.00
2023-05-25T14:02:41.982Z,4.07
2023-05-25T14:03:44.297Z,4.07
2023-05-25T14:04:46.537Z,4.05
2023-05-25T14:05:48.827Z,4.18
2023-05-25T14:06:51.538Z,3.95
2023-05-25T14:07:55.755Z,3.78
2023-05-25T14:08:58.644Z,4.30
2023-05-25T14:10:00.896Z,3.42
2023-05-25T14:11:03.170Z,4.03
2023-05-25T14:12:06.730Z,3.63
2023-05-25T14:13:09.006Z,3.75
2023-05-25T14:14:23.120Z,3.80
2023-05-25T14:15:29.554Z,3.80
2023-05-25T14:16:31.970Z,3.90
2023-05-25T14:17:35.066Z,4.22
2023-05-25T14:18:37.251Z,3.97
2023-05-25T14:19:39.674Z,3.47
2023-05-25T14:20:42.697Z,3.80